Deming Municipal Airport
KDMN : now visible

Airfield :











YOU CAN JOIN US ON...

 
LOGIN :

Register | Disclaimer

   EN    FR    IT 

 









Legend :    VFR   Marginal VFR   IFR   Intensive IFR   Very Intensive IFR
Visi :
Ceiling :
>= 8 km
>= 3000ft
5 to 8 km
1000 to 3000 ft
1500m to 5 km
500 to 1000 ft
800 to 1500m
200 to 500 ft
< 800m
< 200 ft
Symbols :   Thunderstorms  Fog  Heavy snow  Heavy precipitations  Wind > 20 kt






- Airport Elevation : 4314 ft


KDMN - Deming Municipal

CURRENT METAR :
  • 161153Z AUTO 10SM CLR 24/13 A3005 RMK AO2 SLP085 T02390133 10289 20239 53003 $

EXPIRED METARs :
  • 161053Z AUTO 22009KT 10SM CLR 24/14 A3004 RMK AO2 SLP078 T02440139 $
  • 160953Z AUTO 26008KT 10SM CLR 26/14 A3003 RMK AO2 SLP073 T02560139 $
  • 160853Z AUTO 22007KT 10SM CLR 27/13 A3004 RMK AO2 SLP079 T02670133 56006 $
  • 160753Z AUTO 27014G21KT 10SM CLR 28/13 A3005 RMK AO2 SLP079 T02780133 $

TAF KDMN
Valid from the 16 at 12:00 until the 17 at 12:00 UTC


161131Z 1612/1712 25007KT P6SM FEW250
FM161800 15007KT P6SM SCT090 BKN150
KZAB FIR / North America



MET'MAP, your aeronautical weather chart ! - Copyright ORBIFLY December 2007 - Disclaimer

ORBIFLY MET'MAP TEAM :

Programming & Development : Alexandra Zaïnal
Original concept : Baudouin d'Aumeries
Technical & hardware support : Manuel Goepfert
Assistance : Marc-Olivier Méhu




SOURCES & CREDITS :

   NOAA       Earth
Advisory